Time;durP1;ratioP1;P1;durP2;ratioP2;P2;SDS_P1;SDS_P2;PMS_P1;PMS_P2;Temp;Humidity;BMP_temperature;BMP_pressure;BME280_temperature;BME280_humidity;BME280_pressure;Samples;Min_cycle;Max_cycle;Signal;HPM_P1;HPM_P2
2024/02/22 00:02:19;;;;;;;1.38;0.95;;;7.40;99.90;;;-144.05;90.56;57008.13;5015725;28;20121;-78
2024/02/22 00:04:46;;;;;;;2.40;0.93;;;7.60;99.90;;;-144.05;90.64;57010.25;5016570;28;20167;-82
2024/02/22 00:07:14;;;;;;;1.55;1.10;;;;;;;-144.05;90.80;57016.63;5015487;28;20537;-80
2024/02/22 00:09:40;;;;;;;0.98;0.80;;;7.30;99.90;;;-144.05;91.55;57010.25;5013071;28;20032;-79
2024/02/22 00:12:06;;;;;;;1.00;0.70;;;7.50;99.90;;;-144.05;91.05;57018.75;5014029;28;20033;-80
2024/02/22 00:14:34;;;;;;;1.25;0.75;;;6.90;99.90;;;-144.05;91.30;57035.75;5015146;28;20060;-78
2024/02/22 00:17:02;;;;;;;1.58;1.17;;;;;;;-144.05;91.81;57025.13;5011555;28;20022;-78
2024/02/22 00:19:28;;;;;;;1.48;0.85;;;7.20;99.90;;;-144.05;92.31;57020.88;5013058;28;20018;-79
2024/02/22 00:21:55;;;;;;;1.20;0.70;;;;;;;-144.05;92.14;56995.38;5014609;28;20067;-79
2024/02/22 00:24:21;;;;;;;1.98;0.80;;;;;;;-144.05;92.51;57012.38;5014543;28;20022;-79
2024/02/22 00:26:47;;;;;;;3.13;0.70;;;7.40;99.90;;;-144.05;92.40;57050.63;5014557;28;20430;-78
2024/02/22 00:29:13;;;;;;;1.30;0.80;;;7.30;99.90;;;-144.05;92.16;57025.13;5012893;28;20025;-79
2024/02/22 00:31:39;;;;;;;1.13;0.75;;;7.70;99.90;;;-144.05;92.47;57006.00;5014305;28;20168;-79
2024/02/22 00:34:05;;;;;;;1.60;0.70;;;;;;;-144.05;92.33;57012.38;5014176;28;20061;-79
2024/02/22 00:36:43;;;;;;;2.45;0.80;;;6.90;99.90;;;-144.05;92.75;57014.50;5015031;28;20056;-78
2024/02/22 00:39:10;;;;;;;0.60;0.60;;;7.90;99.90;;;-144.05;92.91;57023.00;5012346;28;20380;-80
2024/02/22 00:41:37;;;;;;;0.95;0.75;;;6.80;99.90;;;-144.05;92.93;57023.00;5016504;28;20443;-79
2024/02/22 00:44:05;;;;;;;1.02;0.65;;;7.10;99.90;;;-144.05;92.85;57010.25;5019718;28;20029;-76
2024/02/22 00:46:31;;;;;;;1.30;0.60;;;7.00;99.90;;;-144.05;94.04;57020.88;5018187;28;20037;-75
2024/02/22 00:48:57;;;;;;;1.40;0.80;;;;;;;-144.05;93.29;57006.00;5016232;28;20514;-78
2024/02/22 00:51:23;;;;;;;0.85;0.63;;;7.80;99.90;;;-144.05;93.70;57010.25;5017053;28;20029;-80
2024/02/22 00:53:49;;;;;;;0.63;0.45;;;;;;;-144.05;93.70;57008.13;5014734;28;20587;-77
2024/02/22 00:56:15;;;;;;;1.75;0.55;;;7.50;99.90;;;-144.05;93.60;57014.50;5031839;28;20054;-77
2024/02/22 00:58:42;;;;;;;0.85;0.75;;;;;;;-144.05;93.20;57008.13;5014839;28;20368;-78
2024/02/22 01:01:10;;;;;;;1.40;0.73;;;8.00;99.90;;;-144.05;92.74;57018.75;5015156;28;20034;-81
2024/02/22 01:03:37;;;;;;;0.60;0.55;;;7.40;99.90;;;-144.05;92.79;56991.13;5013263;28;20088;-81
2024/02/22 01:06:03;;;;;;;1.40;0.50;;;7.20;99.90;;;-144.05;93.33;57010.25;5012262;28;20029;-81
2024/02/22 01:08:28;;;;;;;0.70;0.70;;;7.10;99.90;;;-144.05;93.29;57025.13;5012232;28;20424;-81
2024/02/22 01:10:55;;;;;;;0.52;0.50;;;;;;;-144.05;93.33;57006.00;5012681;28;20053;-80
2024/02/22 01:13:22;;;;;;;0.75;0.60;;;6.50;99.90;;;-144.05;92.81;56991.13;5013882;28;20068;-79
2024/02/22 01:15:48;;;;;;;0.40;0.40;;;7.30;99.90;;;-144.05;93.43;57006.00;5013793;28;20026;-78
2024/02/22 01:18:14;;;;;;;0.77;0.77;;;10.80;99.90;;;-144.05;93.25;57014.50;5013107;28;20073;-80
2024/02/22 01:20:39;;;;;;;0.88;0.45;;;7.50;99.90;;;-144.05;92.72;56995.38;5013683;28;20056;-78
2024/02/22 01:23:06;;;;;;;0.68;0.65;;;;;;;-144.05;93.47;56999.63;5013467;28;20376;-78
2024/02/22 01:25:32;;;;;;;0.47;0.47;;;;;;;-144.05;93.07;56993.25;5011934;28;20033;-81
2024/02/22 01:27:58;;;;;;;1.20;0.80;;;7.30;99.90;;;-144.05;93.00;57020.88;5011884;28;20033;-79
2024/02/22 01:30:24;;;;;;;0.73;0.57;;;;;;;-144.05;93.43;57003.88;5012879;28;20080;-78
2024/02/22 01:32:50;;;;;;;1.20;0.70;;;7.30;99.90;;;-144.05;93.07;56997.50;5011293;28;20038;-79
2024/02/22 01:35:16;;;;;;;0.65;0.65;;;7.40;99.90;;;-144.05;93.40;57018.75;5012815;28;20368;-78
2024/02/22 01:37:42;;;;;;;1.70;0.60;;;;;;;-144.05;93.53;57006.00;5011233;28;20022;-80
2024/02/22 01:40:11;;;;;;;0.60;0.60;;;7.40;99.90;;;-144.05;93.80;57023.00;5012603;28;20033;-78
2024/02/22 01:42:41;;;;;;;1.20;0.68;;;7.40;99.90;;;-144.05;94.04;57020.88;5012443;28;20484;-79
2024/02/22 01:45:08;;;;;;;0.40;0.40;;;;;;;-144.05;93.70;57006.00;5011239;28;20030;-79
2024/02/22 01:47:36;;;;;;;1.20;0.93;;;6.90;99.90;;;-144.05;93.16;56999.63;5012239;28;20113;-79
2024/02/22 01:50:03;;;;;;;0.65;0.60;;;;;;;-144.05;93.53;57031.50;5011433;28;20041;-78
2024/02/22 01:52:30;;;;;;;0.60;0.60;;;14.10;99.90;;;-144.05;93.73;57033.63;5010960;28;20029;-79
2024/02/22 01:54:57;;;;;;;0.80;0.77;;;;;;;-144.05;93.62;56995.38;5012066;28;20529;-79
2024/02/22 01:57:23;;;;;;;1.33;0.85;;;;;;;-144.05;94.09;57010.25;5012375;28;20033;-78
2024/02/22 01:59:51;;;;;;;0.80;0.70;;;7.50;99.90;;;-144.05;94.03;57020.88;5011914;28;20034;-78
2024/02/22 02:02:17;;;;;;;1.67;0.60;;;;;;;-144.05;93.62;56963.53;5011378;28;20030;-79
2024/02/22 02:04:44;;;;;;;2.42;0.90;;;7.50;99.90;;;-144.05;94.07;57016.63;5011864;28;20026;-79
2024/02/22 02:07:10;;;;;;;2.47;0.75;;;7.90;99.90;;;-144.05;93.81;56984.78;5026456;28;20034;-79
2024/02/22 02:09:36;;;;;;;1.05;0.90;;;;;;;-144.05;93.89;56999.63;5011881;28;20530;-79
2024/02/22 02:12:03;;;;;;;0.70;0.70;;;;;;;-144.05;94.05;57016.63;5011399;28;20033;-79
2024/02/22 02:14:29;;;;;;;1.45;0.60;;;7.50;99.90;;;-144.05;94.14;57006.00;5012487;28;20030;-79
2024/02/22 02:16:54;;;;;;;1.38;0.60;;;7.30;99.90;;;-144.05;94.48;57001.75;5010961;28;20057;-80
2024/02/22 02:19:24;;;;;;;1.70;0.70;;;6.90;99.90;;;-144.05;94.61;57010.25;5011298;28;20038;-79
2024/02/22 02:22:46;;;;;;;0.80;0.80;;;8.90;99.90;;;-144.05;94.26;57020.88;5011353;28;20052;-80
2024/02/22 02:25:13;;;;;;;0.60;0.60;;;7.20;99.90;;;-144.05;94.67;57010.25;5011689;28;20044;-81
2024/02/22 02:27:38;;;;;;;0.50;0.50;;;7.20;99.90;;;-144.05;94.94;57031.50;5012256;28;20135;-80
2024/02/22 02:30:06;;;;;;;0.68;0.60;;;7.40;99.90;;;-144.05;95.20;56993.25;5012225;28;20033;-80
2024/02/22 02:32:32;;;;;;;2.15;1.00;;;;;;;-144.05;94.90;56980.53;5013438;28;20088;-80
2024/02/22 02:34:59;;;;;;;1.02;0.80;;;7.40;99.90;;;-144.05;94.87;56997.50;5012885;28;20030;-78
2024/02/22 02:37:25;;;;;;;1.30;1.00;;;;;;;-144.05;95.15;57023.00;5011733;28;20021;-79
2024/02/22 02:39:52;;;;;;;2.08;0.90;;;;;;;-144.05;95.28;57023.00;5013911;28;20036;-78
2024/02/22 02:42:18;;;;;;;1.50;0.90;;;8.10;99.90;;;-144.05;95.95;57001.75;5012602;28;20030;-79
2024/02/22 02:44:45;;;;;;;1.83;0.80;;;;;;;-144.05;95.74;57012.38;5017551;28;20052;-80
2024/02/22 02:47:12;;;;;;;0.80;0.80;;;10.90;99.90;;;-144.05;95.68;56991.13;5020201;28;20081;-80
2024/02/22 02:49:38;;;;;;;0.90;0.90;;;10.80;99.90;;;-144.05;95.58;56986.91;5015371;28;20045;-79
2024/02/22 02:52:04;;;;;;;1.25;1.15;;;6.90;99.90;;;-144.05;96.32;56989.00;5015212;28;20030;-83
2024/02/22 02:54:30;;;;;;;0.95;0.93;;;7.00;99.90;;;-144.05;96.20;56976.28;5014269;28;20546;-81
2024/02/22 02:56:56;;;;;;;3.60;1.13;;;;;;;-144.05;96.42;56963.53;5015059;28;20030;-80
2024/02/22 02:59:22;;;;;;;1.23;1.00;;;;;;;-144.05;96.50;57031.50;5021478;28;20026;-80
2024/02/22 03:01:50;;;;;;;1.50;1.40;;;;;;;-144.05;96.44;57006.00;5024063;28;20159;-81
2024/02/22 03:04:17;;;;;;;0.98;0.98;;;7.40;99.90;;;-144.05;96.68;57020.88;5014863;28;20442;-80
2024/02/22 03:06:45;;;;;;;2.58;1.27;;;8.90;99.90;;;-144.05;96.75;56984.78;5016869;28;20116;-79
2024/02/22 03:09:11;;;;;;;2.17;1.10;;;;;;;-144.05;96.28;57012.38;5016882;28;20037;-81
2024/02/22 03:11:37;;;;;;;1.20;1.10;;;7.70;99.90;;;-144.05;96.65;57006.00;5015650;28;20037;-81
2024/02/22 03:14:04;;;;;;;1.55;1.05;;;;;;;-144.05;96.66;56999.63;5017205;28;20097;-81
2024/02/22 03:16:30;;;;;;;1.20;1.10;;;7.80;99.90;;;-144.05;96.75;57018.75;5015605;28;20104;-80
2024/02/22 03:18:56;;;;;;;2.00;1.10;;;10.70;99.90;;;-144.05;96.63;57046.38;5016688;28;20034;-78
2024/02/22 03:21:23;;;;;;;1.33;1.20;;;6.10;99.90;;;-144.05;96.26;57006.00;5016266;28;20022;-79
2024/02/22 03:23:49;;;;;;;1.75;1.40;;;;;;;-144.05;96.37;56997.50;5016110;28;20070;-79
2024/02/22 03:26:16;;;;;;;1.27;1.17;;;7.50;99.90;;;-144.05;95.86;57018.75;5016970;28;20464;-79
2024/02/22 03:28:44;;;;;;;1.27;1.17;;;14.10;99.90;;;-144.05;96.13;57008.13;5014595;28;20038;-78
2024/02/22 03:31:10;;;;;;;1.17;1.08;;;11.10;99.90;;;-144.05;96.00;57014.50;5016208;28;20018;-81
2024/02/22 03:33:36;;;;;;;1.60;1.40;;;8.00;99.90;;;-144.05;96.09;57010.25;5014331;28;20022;-79
2024/02/22 03:36:02;;;;;;;0.98;0.98;;;7.00;99.90;;;-144.05;95.48;57020.88;5015399;28;20719;-81
2024/02/22 03:38:28;;;;;;;0.90;0.90;;;;;;;-144.05;96.19;56989.00;5014204;28;20092;-81
2024/02/22 03:40:54;;;;;;;2.22;1.00;;;;;;;-144.05;95.58;57016.63;5023330;28;20021;-82
2024/02/22 03:43:21;;;;;;;1.00;0.90;;;;;;;-144.05;95.60;56980.53;5021368;28;20064;-81
2024/02/22 03:45:47;;;;;;;0.80;0.80;;;;;;;-144.05;95.52;57023.00;5022730;28;20036;-82
2024/02/22 03:48:13;;;;;;;0.85;0.85;;;7.30;99.90;;;-144.05;95.54;57006.00;5022385;28;20471;-80
2024/02/22 03:50:39;;;;;;;2.17;1.08;;;;;;;-144.05;95.83;57010.25;5019700;28;20037;-79
2024/02/22 03:53:05;;;;;;;1.23;0.80;;;;;;;-144.05;95.67;57006.00;5014940;28;20050;-78
2024/02/22 03:55:31;;;;;;;0.82;0.82;;;;;;;-144.05;95.34;56997.50;5017681;28;20025;-79
2024/02/22 03:57:58;;;;;;;1.30;0.90;;;;;;;-144.05;94.85;56997.50;5018775;28;20488;-81
2024/02/22 04:00:24;;;;;;;0.80;0.80;;;7.90;99.90;;;-144.05;95.23;57014.50;5023516;28;20061;-80
2024/02/22 04:02:50;;;;;;;1.38;0.90;;;;;;;-144.05;94.80;57006.00;5022445;28;20041;-80
2024/02/22 04:05:16;;;;;;;0.68;0.68;;;10.90;99.90;;;-144.05;95.26;56986.91;5019395;28;20130;-80
2024/02/22 04:07:42;;;;;;;1.25;0.90;;;6.90;99.90;;;-144.05;94.87;56997.50;5018011;28;20041;-81
2024/02/22 04:10:10;;;;;;;2.05;0.90;;;9.20;99.90;;;-144.05;95.11;57001.75;5019260;28;20029;-80
2024/02/22 04:12:36;;;;;;;1.15;1.05;;;13.60;99.90;;;-144.05;96.00;56982.66;5023596;28;20025;-79
2024/02/22 04:15:02;;;;;;;1.10;1.00;;;;;;;-144.05;95.55;57003.88;5019072;28;20101;-81
2024/02/22 04:17:29;;;;;;;0.85;0.85;;;6.90;99.90;;;-144.05;95.94;57023.00;5018659;28;20068;-81
2024/02/22 04:19:56;;;;;;;1.13;1.02;;;;;;;-144.05;96.19;56999.63;5017964;28;20030;-79
2024/02/22 04:22:22;;;;;;;2.08;1.17;;;7.10;99.90;;;-144.05;95.95;56993.25;5018196;28;20033;-81
2024/02/22 04:24:47;;;;;;;0.80;0.80;;;7.00;99.90;;;-144.05;96.34;57001.75;5020071;28;20105;-81
2024/02/22 04:27:14;;;;;;;1.73;1.15;;;;;;;-144.05;96.12;57025.13;5017238;28;20066;-80
2024/02/22 04:29:40;;;;;;;1.35;1.25;;;;;;;-144.05;95.87;57027.25;5017075;28;20048;-79
2024/02/22 04:32:07;;;;;;;1.27;1.17;;;7.10;99.90;;;-144.05;96.23;57010.25;5015122;28;20057;-78
2024/02/22 04:34:33;;;;;;;1.70;1.10;;;7.00;99.90;;;-144.05;96.46;57006.00;5016504;28;20053;-81
2024/02/22 04:36:59;;;;;;;2.10;1.20;;;7.70;99.90;;;-144.05;96.70;56999.63;5015107;28;20029;-78
2024/02/22 04:39:25;;;;;;;1.88;1.20;;;;;;;-144.05;96.98;57020.88;5014205;28;20034;-79
2024/02/22 04:41:54;;;;;;;1.05;0.93;;;9.20;99.90;;;-144.05;96.98;57029.38;5017226;28;20030;-80
2024/02/22 04:44:20;;;;;;;2.22;1.60;;;7.30;99.90;;;-144.05;96.60;56995.38;5015298;28;20056;-78
2024/02/22 04:46:46;;;;;;;1.50;1.40;;;;;;;-144.05;96.72;57003.88;5014798;28;20041;-77
2024/02/22 04:49:12;;;;;;;1.38;1.25;;;7.50;99.90;;;-144.05;96.04;56989.00;5016490;28;20025;-78
2024/02/22 04:51:40;;;;;;;1.52;1.25;;;7.40;99.90;;;-144.05;96.06;56982.66;5016131;28;20026;-78
2024/02/22 04:54:06;;;;;;;1.30;1.20;;;7.60;99.90;;;-144.05;95.82;57014.50;5013862;28;20037;-76
2024/02/22 04:56:32;;;;;;;1.63;1.50;;;11.10;99.90;;;-144.05;95.72;57010.25;5014923;28;20101;-77
2024/02/22 04:58:58;;;;;;;1.35;1.25;;;8.00;99.90;;;-144.05;95.52;57025.13;5016478;28;20022;-76
2024/02/22 05:01:27;;;;;;;1.73;1.20;;;9.20;99.90;;;-144.05;95.89;57014.50;5017171;28;20368;-81
2024/02/22 05:03:53;;;;;;;1.25;0.95;;;8.30;99.90;;;-144.05;95.86;57023.00;5016045;28;20029;-81
2024/02/22 05:06:20;;;;;;;2.60;1.00;;;7.70;99.90;;;-144.05;96.04;56997.50;5015741;28;21333;-79
2024/02/22 05:08:47;;;;;;;1.55;0.90;;;;;;;-144.05;96.12;57012.38;5014660;28;20021;-77
2024/02/22 05:11:12;;;;;;;1.23;1.13;;;7.50;99.90;;;-144.05;95.99;56976.28;5014319;28;20475;-79
2024/02/22 05:13:42;;;;;;;1.25;0.88;;;7.40;99.90;;;-144.05;96.09;56999.63;5014974;28;20101;-79
2024/02/22 05:16:08;;;;;;;1.02;0.93;;;6.90;99.90;;;-144.05;95.93;56991.13;5015336;28;20100;-79
2024/02/22 05:18:34;;;;;;;1.08;0.90;;;;;;;-144.05;96.06;56965.66;5029729;28;20052;-79
2024/02/22 05:21:01;;;;;;;0.80;0.80;;;;;;;-144.05;95.80;57018.75;5009990;28;20026;-79
2024/02/22 05:23:26;;;;;;;1.23;1.13;;;7.40;99.90;;;-144.05;95.81;56999.63;5020980;28;20072;-81
2024/02/22 05:25:53;;;;;;;1.35;1.00;;;;;;;-144.05;95.86;56993.25;5022665;28;20030;-82
2024/02/22 05:28:18;;;;;;;0.80;0.80;;;7.20;99.90;;;-144.05;95.32;57018.75;5013974;28;20032;-80
2024/02/22 05:30:44;;;;;;;4.63;1.20;;;13.40;99.90;;;-144.05;95.55;57003.88;5015581;28;20057;-80
2024/02/22 05:33:10;;;;;;;1.25;0.90;;;;;;;-144.05;95.51;56982.66;5020757;28;20053;-84
2024/02/22 05:35:38;;;;;;;2.28;1.05;;;8.50;99.90;;;-144.05;95.80;57014.50;5022271;28;20026;-84
2024/02/22 05:38:04;;;;;;;1.30;1.20;;;7.30;99.90;;;-144.05;95.37;57006.00;5019075;28;20040;-82
2024/02/22 05:40:30;;;;;;;1.17;1.05;;;;;;;-144.05;95.62;57014.50;5018608;28;20034;-82
2024/02/22 05:42:58;;;;;;;2.03;1.10;;;7.80;99.90;;;-144.05;95.48;56999.63;5018274;28;20053;-80
2024/02/22 05:45:45;;;;;;;1.17;1.00;;;7.60;99.90;;;-144.05;95.04;57003.88;5018096;28;20034;-80
2024/02/22 05:48:11;;;;;;;1.67;1.58;;;7.50;99.90;;;-144.05;95.58;57014.50;5016508;28;20036;-82
2024/02/22 05:50:37;;;;;;;1.50;1.40;;;7.60;99.90;;;-144.05;95.25;56982.66;5017375;28;20215;-80
2024/02/22 05:53:04;;;;;;;2.35;1.67;;;13.70;99.90;;;-144.05;95.48;57012.38;5018963;28;20480;-80
2024/02/22 05:55:30;;;;;;;4.55;2.50;;;;;;;-144.05;95.47;57006.00;5017263;28;20033;-81
2024/02/22 05:57:56;;;;;;;2.38;2.17;;;8.40;99.90;;;-144.05;95.81;57012.38;5016743;28;20037;-78
2024/02/22 06:00:24;;;;;;;2.33;2.10;;;;;;;-144.05;95.29;56999.63;5015858;28;20034;-81
2024/02/22 06:02:50;;;;;;;2.45;2.20;;;7.10;99.90;;;-144.05;95.86;57003.88;5015473;28;20104;-78
2024/02/22 06:05:16;;;;;;;3.35;2.53;;;7.30;99.90;;;-144.05;95.66;56991.13;5015857;28;20490;-80
2024/02/22 06:07:41;;;;;;;2.35;2.15;;;7.40;99.90;;;-144.05;95.84;57025.13;5014490;28;20025;-80
2024/02/22 06:10:09;;;;;;;2.65;2.42;;;9.30;99.90;;;-144.05;95.40;56997.50;5015055;28;20037;-80
2024/02/22 06:12:37;;;;;;;2.47;2.28;;;7.10;99.90;;;-144.05;95.22;57003.88;5013496;28;20088;-78
2024/02/22 06:15:04;;;;;;;3.90;2.50;;;7.30;99.90;;;-144.05;94.90;57018.75;5018786;28;20086;-80
2024/02/22 06:17:32;;;;;;;3.20;2.88;;;;;;;-144.05;94.84;56984.78;5016491;28;20026;-82
2024/02/22 06:19:59;;;;;;;3.97;2.75;;;;;;;-144.05;95.33;57006.00;5014031;28;20030;-79
2024/02/22 06:22:25;;;;;;;3.45;3.08;;;7.10;99.90;;;-144.05;95.41;57031.50;5016628;28;20034;-82
2024/02/22 06:24:51;;;;;;;4.30;2.80;;;;;;;-144.05;95.33;56999.63;5020037;28;20040;-79
2024/02/22 06:27:17;;;;;;;4.68;3.10;;;7.60;99.90;;;-144.05;95.30;57056.97;5014944;28;20061;-80
2024/02/22 06:29:43;;;;;;;5.28;3.60;;;6.70;99.90;;;-144.05;95.74;57008.13;5015392;28;20071;-82
2024/02/22 06:32:09;;;;;;;4.60;3.15;;;;;;;-144.05;95.48;57033.63;5016819;28;20029;-82
2024/02/22 06:34:36;;;;;;;5.15;4.05;;;;;;;-144.05;95.52;56967.78;5014716;28;20033;-80
2024/02/22 06:37:02;;;;;;;4.63;4.13;;;14.20;99.90;;;-144.05;95.35;56993.25;5014133;28;20430;-80
2024/02/22 06:39:29;;;;;;;4.88;4.38;;;;;;;-144.05;95.27;56986.91;5015159;28;20129;-82
2024/02/22 06:41:55;;;;;;;5.57;4.63;;;7.30;99.90;;;-144.05;95.10;57018.75;5019509;28;20049;-79
2024/02/22 06:44:21;;;;;;;5.15;4.38;;;;;;;-144.05;95.39;56959.28;5021648;28;20118;-80
2024/02/22 06:46:47;;;;;;;5.53;4.20;;;;;;;-144.05;94.45;57010.25;5021270;28;20530;-79
2024/02/22 06:49:16;;;;;;;5.60;5.00;;;8.00;99.90;;;-144.05;94.91;57010.25;5020684;28;20080;-79
2024/02/22 06:51:42;;;;;;;6.00;5.40;;;7.60;99.90;;;-144.05;95.17;57016.63;5021329;28;20034;-79
2024/02/22 06:54:09;;;;;;;5.55;5.03;;;11.00;99.90;;;-144.05;94.75;57023.00;5038637;28;20026;-81
2024/02/22 06:56:35;;;;;;;5.95;5.35;;;13.40;99.90;;;-144.05;94.77;57008.13;5022015;28;20026;-84
2024/02/22 06:59:01;;;;;;;7.82;5.20;;;;;;;-144.05;94.09;57008.13;5023393;28;20037;-82
2024/02/22 07:01:28;;;;;;;7.03;5.03;;;10.80;99.90;;;-144.05;94.00;56963.53;5024696;28;20160;-81
2024/02/22 07:03:54;;;;;;;5.57;5.03;;;;;;;-144.05;93.99;57016.63;5018507;28;20045;-83
2024/02/22 07:06:20;;;;;;;5.28;4.78;;;7.70;99.90;;;-144.05;94.28;57035.75;5018420;28;20030;-82
2024/02/22 07:08:46;;;;;;;5.97;5.38;;;;;;;-144.05;93.58;56997.50;5024297;28;20443;-81
2024/02/22 07:11:13;;;;;;;6.43;5.55;;;;;;;-144.05;93.17;56995.38;5032076;28;20022;-81
2024/02/22 07:13:39;;;;;;;6.30;5.70;;;8.00;99.90;;;-144.05;93.80;56976.28;5030483;28;20026;-79
2024/02/22 07:16:07;;;;;;;5.75;5.15;;;8.50;99.90;;;-144.05;93.76;56997.50;5045507;28;20029;-82
2024/02/22 07:18:33;;;;;;;5.95;5.07;;;8.00;99.90;;;-144.05;93.48;57006.00;5024634;28;20101;-83
2024/02/22 07:21:00;;;;;;;6.97;4.97;;;8.20;99.90;;;-144.05;93.12;56982.66;5024422;28;20026;-83
2024/02/22 07:23:26;;;;;;;5.22;4.70;;;;;;;-144.05;93.52;57018.75;5040358;28;20113;-81
2024/02/22 07:25:52;;;;;;;6.45;4.90;;;9.20;99.90;;;-144.05;92.68;56989.00;5029653;28;20025;-81
2024/02/22 07:28:18;;;;;;;6.28;4.70;;;;;;;-144.05;92.65;56999.63;5023166;28;20041;-79
2024/02/22 07:30:45;;;;;;;4.82;4.07;;;;;;;-144.05;91.97;57027.25;5035339;28;20030;-80
2024/02/22 07:33:11;;;;;;;4.45;3.70;;;8.40;99.90;;;-144.05;91.96;57012.38;5023524;28;20034;-84
2024/02/22 07:35:36;;;;;;;4.13;3.75;;;8.00;99.90;;;-144.05;91.50;57008.13;5020495;28;20036;-82
2024/02/22 07:38:03;;;;;;;4.63;3.78;;;;;;;-144.05;90.97;57008.13;5020941;28;20034;-78
2024/02/22 07:40:29;;;;;;;4.45;2.90;;;14.30;99.90;;;-144.05;91.11;57001.75;5021037;28;20085;-79
2024/02/22 07:42:55;;;;;;;4.47;3.03;;;;;;;-144.05;91.57;57023.00;5019901;28;20061;-79
2024/02/22 07:45:27;;;;;;;2.60;2.15;;;7.70;99.90;;;-144.05;90.68;56989.00;5020793;28;20510;-80
2024/02/22 07:47:56;;;;;;;2.13;1.92;;;;;;;-144.05;90.45;56982.66;5024629;28;20134;-77
2024/02/22 07:50:26;;;;;;;3.88;1.80;;;7.80;99.90;;;-144.05;90.25;57018.75;5023714;28;20042;-82
2024/02/22 07:52:52;;;;;;;2.00;1.63;;;10.80;99.90;;;-144.05;89.86;56993.25;5019448;28;20463;-82
2024/02/22 07:55:18;;;;;;;2.83;1.27;;;8.60;99.90;;;-144.05;89.48;56986.91;5037556;28;20030;-81
2024/02/22 07:57:44;;;;;;;3.00;1.30;;;14.10;99.90;;;-144.05;89.57;56991.13;5020748;28;20114;-80
2024/02/22 08:00:11;;;;;;;1.50;1.20;;;14.10;99.90;;;-144.05;89.63;57001.75;5021694;28;20054;-78
2024/02/22 08:02:36;;;;;;;0.90;0.90;;;8.00;99.90;;;-144.05;88.38;56965.66;5019235;28;20033;-79
2024/02/22 08:05:03;;;;;;;1.20;0.90;;;;;;;-144.05;88.66;56991.13;5020860;28;20030;-79
2024/02/22 08:07:29;;;;;;;0.70;0.70;;;14.00;99.90;;;-144.05;88.25;57010.25;5023158;28;20117;-80
2024/02/22 08:09:55;;;;;;;0.80;0.80;;;;;;;-144.05;88.54;57029.38;5020116;28;20106;-81
2024/02/22 08:12:22;;;;;;;0.95;0.70;;;14.00;99.90;;;-144.05;88.94;57018.75;5020467;28;20459;-81
2024/02/22 08:14:48;;;;;;;2.88;1.00;;;14.10;99.90;;;-144.05;87.89;56976.28;5019892;28;20131;-81
2024/02/22 08:17:17;;;;;;;0.95;0.70;;;14.10;99.90;;;-144.05;88.06;56980.53;5020061;28;20034;-80
2024/02/22 08:19:43;;;;;;;0.90;0.80;;;8.80;99.90;;;-144.05;86.75;57008.13;5035568;28;20022;-80
2024/02/22 08:22:09;;;;;;;1.05;0.90;;;;;;;-144.05;87.34;56974.16;5020191;28;20036;-81
2024/02/22 08:24:36;;;;;;;1.05;0.77;;;;;;;-144.05;87.68;56984.78;5024582;28;20029;-80
2024/02/22 08:27:01;;;;;;;1.20;0.60;;;8.60;99.90;;;-144.05;87.05;57016.63;5018992;28;20049;-79
2024/02/22 08:29:28;;;;;;;0.93;0.63;;;14.60;99.90;;;-144.05;86.39;57001.75;5020489;28;20499;-80
2024/02/22 08:31:54;;;;;;;0.50;0.50;;;8.10;99.90;;;-144.05;86.72;57006.00;5019959;28;20708;-80
2024/02/22 08:34:21;;;;;;;0.75;0.55;;;;;;;-144.05;85.91;56993.25;5018505;28;20069;-81
2024/02/22 08:36:47;;;;;;;0.32;0.32;;;;;;;-144.05;86.10;57018.75;5018224;28;20036;-79
2024/02/22 08:39:14;;;;;;;0.60;0.60;;;14.30;99.90;;;-144.05;86.77;57018.75;5020562;28;20152;-79
2024/02/22 08:41:40;;;;;;;1.08;0.40;;;8.40;99.90;;;-144.05;85.78;56995.38;5035105;28;20036;-81
2024/02/22 08:44:06;;;;;;;0.50;0.50;;;14.10;99.90;;;-144.05;85.41;56989.00;5035191;28;20026;-79
2024/02/22 08:46:32;;;;;;;0.70;0.50;;;;;;;-144.05;86.40;56999.63;5020452;28;20061;-80
2024/02/22 08:48:58;;;;;;;0.60;0.50;;;;;;;-144.05;85.82;57012.38;5020198;28;20034;-81
2024/02/22 08:51:25;;;;;;;0.65;0.50;;;;;;;-144.05;85.74;57001.75;5019835;28;20371;-80
2024/02/22 08:53:50;;;;;;;0.95;0.40;;;14.30;99.90;;;-144.05;85.66;57012.38;5019887;28;20044;-80
2024/02/22 08:56:17;;;;;;;0.57;0.45;;;14.10;99.90;;;-144.05;85.97;57006.00;5020651;28;20030;-81
2024/02/22 08:58:43;;;;;;;0.43;0.43;;;7.90;99.90;;;-144.05;85.79;57016.63;5023101;28;20033;-82
2024/02/22 09:01:11;;;;;;;0.90;0.45;;;;;;;-144.05;85.99;56995.38;5022638;28;20030;-83
2024/02/22 09:03:37;;;;;;;0.82;0.40;;;;;;;-144.05;85.77;57025.13;5022032;28;20559;-82
2024/02/22 09:06:03;;;;;;;0.63;0.40;;;8.30;99.90;;;-144.05;84.61;56991.13;5019519;28;20042;-77
2024/02/22 09:08:29;;;;;;;0.40;0.32;;;14.40;99.90;;;-144.05;84.94;56997.50;5034216;28;20025;-80
2024/02/22 09:10:55;;;;;;;0.38;0.25;;;14.30;99.90;;;-144.05;84.40;56980.53;5023952;28;20033;-78
2024/02/22 09:13:21;;;;;;;0.30;0.30;;;;;;;-144.05;84.00;57003.88;5029857;28;20026;-79
2024/02/22 09:15:49;;;;;;;0.80;0.38;;;11.90;99.90;;;-144.05;84.45;57006.00;5043560;28;20037;-81
2024/02/22 09:18:19;;;;;;;0.20;0.20;;;8.30;99.90;;;-144.05;83.84;57020.88;5028330;28;20026;-79
2024/02/22 09:20:49;;;;;;;0.47;0.47;;;8.40;99.90;;;-144.05;84.07;56999.63;5032743;28;20038;-77
2024/02/22 09:23:16;;;;;;;1.80;0.38;;;8.80;99.90;;;-144.05;83.66;56993.25;5022923;28;20380;-80
2024/02/22 09:25:43;;;;;;;0.20;0.20;;;13.90;99.90;;;-144.05;83.77;56982.66;5022148;28;20033;-80
2024/02/22 09:28:11;;;;;;;1.88;0.22;;;11.00;99.90;;;-144.05;83.77;57001.75;5021166;28;20030;-80
2024/02/22 09:30:36;;;;;;;0.50;0.28;;;8.90;99.90;;;-144.05;82.51;56993.25;5020094;28;20030;-80
2024/02/22 09:33:03;;;;;;;0.68;0.17;;;14.50;99.90;;;-144.05;83.86;56978.41;5020547;28;20056;-79
2024/02/22 09:35:30;;;;;;;3.00;0.20;;;;;;;-144.05;83.89;56986.91;5018772;28;20061;-79
2024/02/22 09:37:56;;;;;;;1.20;0.50;;;;;;;-144.05;84.76;57012.38;5018508;28;20133;-80
2024/02/22 09:40:23;;;;;;;0.60;0.43;;;;;;;-144.05;84.12;56972.03;5018025;28;20025;-80
2024/02/22 09:42:50;;;;;;;0.20;0.10;;;;;;;-144.05;83.67;57031.50;5019062;28;20112;-79
2024/02/22 09:45:16;;;;;;;0.30;0.30;;;7.90;99.90;;;-144.05;83.69;56997.50;5020230;28;20682;-81
2024/02/22 09:47:45;;;;;;;0.52;0.40;;;8.60;99.90;;;-144.05;83.61;56980.53;5019786;28;20030;-82
2024/02/22 09:50:12;;;;;;;0.93;0.28;;;8.20;99.90;;;-144.05;84.07;57020.88;5018348;28;20068;-81
2024/02/22 09:52:38;;;;;;;0.20;0.20;;;7.80;99.90;;;-144.05;84.42;56989.00;5017930;28;20026;-80
2024/02/22 09:55:06;;;;;;;0.30;0.20;;;11.00;99.90;;;-144.05;84.37;56984.78;5019658;28;20022;-80
2024/02/22 09:57:33;;;;;;;0.20;0.20;;;;;;;-144.05;84.26;57001.75;5017728;28;20086;-81
2024/02/22 10:00:00;;;;;;;0.35;0.10;;;11.10;99.90;;;-144.05;83.81;57014.50;5018189;28;20205;-80
2024/02/22 10:02:26;;;;;;;0.60;0.25;;;8.50;99.90;;;-144.05;83.52;56991.13;5019198;28;20460;-80
2024/02/22 10:04:56;;;;;;;0.15;0.10;;;8.90;99.90;;;-144.05;83.66;56986.91;5020263;28;20033;-82
2024/02/22 10:07:31;;;;;;;0.17;0.10;;;14.70;99.90;;;-144.05;82.45;57018.75;5019417;28;20029;-80
2024/02/22 10:09:58;;;;;;;0.67;0.30;;;;;;;-144.05;81.47;57016.63;5019323;28;20080;-80
2024/02/22 10:12:33;;;;;;;0.80;0.10;;;9.60;99.90;;;-144.05;81.86;57014.50;5018641;28;20300;-79
2024/02/22 10:14:59;;;;;;;0.50;0.10;;;8.80;99.90;;;-144.05;83.56;56982.66;5033465;28;20038;-81
2024/02/22 10:17:29;;;;;;;1.75;0.25;;;9.10;99.90;;;-144.05;83.96;56989.00;5019656;28;20084;-79
2024/02/22 10:20:06;;;;;;;0.10;0.10;;;9.10;99.90;;;-144.05;84.21;56997.50;5019511;28;20096;-80
2024/02/22 10:22:39;;;;;;;0.77;0.28;;;14.40;99.90;;;-144.05;85.27;56974.16;5017804;28;20057;-80
2024/02/22 10:25:11;;;;;;;1.75;0.20;;;8.60;99.90;;;-144.05;85.79;57006.00;5024029;28;20088;-79
2024/02/22 10:27:39;;;;;;;4.45;0.30;;;7.90;99.90;;;-144.05;85.94;56997.50;5018538;28;20030;-81
2024/02/22 10:30:13;;;;;;;0.47;0.22;;;14.40;99.90;;;-144.05;85.69;57003.88;5034301;28;20029;-80
2024/02/22 10:32:42;;;;;;;1.02;0.20;;;8.20;99.90;;;-144.05;85.15;56978.41;5017775;28;20034;-78